createdAt,value
2023-02-12T00:03:56.410Z,8.80
2023-02-12T00:08:59.204Z,13.40
2023-02-12T00:14:03.098Z,12.40
2023-02-12T00:19:05.212Z,10.90
2023-02-12T00:24:07.793Z,13.20
2023-02-12T00:29:10.999Z,19.67
2023-02-12T00:34:13.294Z,15.52
2023-02-12T00:39:16.324Z,12.35
2023-02-12T00:44:18.443Z,11.65
2023-02-12T00:49:20.826Z,11.50
2023-02-12T00:54:22.954Z,11.25
2023-02-12T00:59:26.233Z,17.92
2023-02-12T01:04:28.372Z,17.25
2023-02-12T01:09:30.697Z,19.02
2023-02-12T01:14:34.036Z,19.13
2023-02-12T01:19:36.582Z,17.67
2023-02-12T01:24:38.995Z,15.80
2023-02-12T01:29:44.814Z,14.65
2023-02-12T01:34:47.117Z,12.98
2023-02-12T01:39:49.377Z,10.85
2023-02-12T01:45:13.541Z,11.57
2023-02-12T01:50:20.361Z,12.60
2023-02-12T01:55:22.767Z,12.43
2023-02-12T02:00:25.681Z,12.50
2023-02-12T02:05:41.511Z,11.52
2023-02-12T02:10:44.334Z,16.38
2023-02-12T02:15:51.565Z,13.50
2023-02-12T02:21:18.449Z,12.32
2023-02-12T02:26:39.272Z,12.70
2023-02-12T02:31:50.696Z,10.10
2023-02-12T02:37:48.184Z,12.77
2023-02-12T02:43:16.530Z,10.25
2023-02-12T02:48:35.453Z,9.50
2023-02-12T02:53:53.000Z,11.70
2023-02-12T02:59:13.379Z,10.65
2023-02-12T03:04:24.834Z,10.90
2023-02-12T03:09:34.423Z,11.25
2023-02-12T03:14:40.592Z,13.27
2023-02-12T03:19:47.774Z,17.55
2023-02-12T03:25:15.202Z,17.13
2023-02-12T03:30:17.683Z,15.25
2023-02-12T03:35:32.300Z,14.45
2023-02-12T03:40:51.492Z,10.15
2023-02-12T03:46:28.188Z,9.95
2023-02-12T03:51:38.695Z,8.90
2023-02-12T03:56:52.505Z,7.50
2023-02-12T04:01:58.088Z,8.13
2023-02-12T04:07:01.242Z,10.25
2023-02-12T04:12:31.299Z,8.52
2023-02-12T04:18:02.869Z,9.75
2023-02-12T04:23:14.425Z,9.40
2023-02-12T04:28:25.856Z,8.90
2023-02-12T04:33:36.409Z,7.80
2023-02-12T04:38:50.406Z,9.10
2023-02-12T04:43:52.580Z,9.20
2023-02-12T04:48:58.325Z,8.88
2023-02-12T04:54:00.520Z,9.60
2023-02-12T04:59:03.012Z,9.88
2023-02-12T05:04:06.858Z,9.32
2023-02-12T05:09:13.548Z,10.00
2023-02-12T05:14:16.213Z,10.93
2023-02-12T05:19:18.252Z,11.40
2023-02-12T05:24:20.450Z,11.68
2023-02-12T05:29:22.762Z,12.80
2023-02-12T05:34:24.915Z,12.35
2023-02-12T05:39:27.036Z,17.05
2023-02-12T05:44:29.328Z,11.63
2023-02-12T05:49:31.568Z,15.00
2023-02-12T05:54:33.924Z,15.27
2023-02-12T05:59:36.157Z,15.48
2023-02-12T06:04:38.234Z,12.80
2023-02-12T06:09:40.420Z,22.05
2023-02-12T06:14:43.285Z,18.17
2023-02-12T06:19:45.564Z,13.52
2023-02-12T06:24:47.884Z,17.15
2023-02-12T06:29:50.271Z,70.72
2023-02-12T06:34:52.662Z,15.23
2023-02-12T06:39:54.871Z,13.45
2023-02-12T06:44:56.932Z,12.77
2023-02-12T06:49:59.286Z,12.45
2023-02-12T06:55:01.634Z,12.40
2023-02-12T07:00:04.942Z,14.77
2023-02-12T07:05:07.158Z,13.70
2023-02-12T07:10:10.001Z,14.02
2023-02-12T07:15:12.898Z,15.98
2023-02-12T07:20:15.193Z,11.85
2023-02-12T07:25:17.382Z,16.27
2023-02-12T07:30:19.976Z,18.77
2023-02-12T07:35:22.250Z,16.65
2023-02-12T07:40:24.474Z,13.45
2023-02-12T07:45:26.892Z,19.30
2023-02-12T07:50:29.211Z,21.35
2023-02-12T07:55:31.778Z,18.10
2023-02-12T08:00:33.973Z,14.18
2023-02-12T08:05:36.182Z,16.20
2023-02-12T08:10:38.324Z,26.85
2023-02-12T08:15:40.766Z,24.50
2023-02-12T08:20:42.897Z,17.83
2023-02-12T08:25:45.127Z,15.65
2023-02-12T08:30:47.416Z,14.13
2023-02-12T08:35:49.780Z,16.48
2023-02-12T08:40:51.915Z,17.08
2023-02-12T08:45:55.647Z,17.17
2023-02-12T08:51:11.709Z,15.35
2023-02-12T08:56:16.990Z,16.73
2023-02-12T09:01:22.595Z,15.77
2023-02-12T09:06:28.053Z,15.10
2023-02-12T09:11:33.166Z,17.08
2023-02-12T09:16:37.337Z,14.65
2023-02-12T09:21:39.700Z,15.40
2023-02-12T09:26:42.156Z,18.38
2023-02-12T09:31:44.568Z,16.67
2023-02-12T09:36:46.756Z,17.80
2023-02-12T09:42:07.336Z,18.15
2023-02-12T09:47:27.156Z,17.23
2023-02-12T09:52:29.726Z,18.00
2023-02-12T09:57:36.656Z,17.55
2023-02-12T10:02:40.457Z,15.40
2023-02-12T10:07:56.797Z,15.85
2023-02-12T10:13:11.360Z,15.40
2023-02-12T10:18:42.643Z,14.45
2023-02-12T10:24:01.009Z,14.85
2023-02-12T10:29:15.138Z,15.48
2023-02-12T10:34:32.954Z,23.67
2023-02-12T10:39:46.530Z,17.13
2023-02-12T10:44:48.856Z,13.25
2023-02-12T10:50:02.301Z,19.13
2023-02-12T10:55:33.488Z,16.58
2023-02-12T11:00:38.146Z,13.88
2023-02-12T11:05:42.846Z,30.77
2023-02-12T11:10:45.278Z,19.17
2023-02-12T11:15:49.804Z,17.90
2023-02-12T11:20:56.412Z,33.03
2023-02-12T11:26:21.697Z,32.65
2023-02-12T11:31:32.047Z,32.50
2023-02-12T11:36:38.937Z,28.57
2023-02-12T11:41:42.412Z,24.08
2023-02-12T11:47:02.293Z,27.25
2023-02-12T11:52:05.347Z,18.10
2023-02-12T11:57:07.767Z,42.60
2023-02-12T12:02:29.564Z,22.95
2023-02-12T12:07:37.029Z,44.42
2023-02-12T12:12:57.252Z,22.38
2023-02-12T12:18:30.582Z,27.23
2023-02-12T12:23:38.945Z,21.25
2023-02-12T12:28:48.287Z,24.52
2023-02-12T12:33:57.379Z,23.08
2023-02-12T12:39:04.590Z,20.00
2023-02-12T12:44:22.779Z,21.23
2023-02-12T12:49:48.347Z,22.15
2023-02-12T12:55:24.589Z,32.70
2023-02-12T13:00:53.393Z,20.17
2023-02-12T13:06:20.599Z,27.45
2023-02-12T13:11:36.311Z,20.20
2023-02-12T13:16:50.057Z,19.67
2023-02-12T13:22:15.962Z,19.15
2023-02-12T13:27:32.605Z,17.58
2023-02-12T13:32:43.499Z,21.88
2023-02-12T13:37:53.281Z,18.83
2023-02-12T13:43:15.872Z,19.75
2023-02-12T13:48:25.555Z,63.25
2023-02-12T13:53:52.940Z,64.68
2023-02-12T13:59:01.131Z,25.25
2023-02-12T14:04:22.267Z,21.15
2023-02-12T14:09:32.756Z,28.13
2023-02-12T14:14:40.958Z,24.77
2023-02-12T14:20:06.275Z,121.72
2023-02-12T14:25:14.732Z,60.30
2023-02-12T14:30:16.918Z,39.22
2023-02-12T14:35:35.815Z,39.80
2023-02-12T14:40:44.545Z,24.13
2023-02-12T14:45:46.847Z,30.63
2023-02-12T14:50:52.480Z,29.05
2023-02-12T14:55:56.403Z,25.15
2023-02-12T15:01:01.822Z,32.90
2023-02-12T15:06:23.236Z,44.15
2023-02-12T15:11:43.436Z,58.90
2023-02-12T15:17:11.104Z,45.60
2023-02-12T15:22:23.086Z,37.20
2023-02-12T15:27:25.374Z,52.92
2023-02-12T15:32:30.160Z,47.15
2023-02-12T15:37:41.050Z,36.20
2023-02-12T15:43:00.452Z,39.42
2023-02-12T15:48:19.883Z,50.35
2023-02-12T15:53:26.415Z,30.23
2023-02-12T15:58:46.704Z,25.10
2023-02-12T16:03:57.081Z,40.00
2023-02-12T16:09:03.966Z,25.00
2023-02-12T16:14:19.368Z,49.25
2023-02-12T16:19:24.657Z,33.08
2023-02-12T16:24:33.193Z,24.77
2023-02-12T16:29:44.022Z,26.33
2023-02-12T16:34:46.610Z,23.88
2023-02-12T16:39:48.800Z,22.95
2023-02-12T16:44:50.998Z,23.38
2023-02-12T16:49:57.108Z,22.63
2023-02-12T16:54:59.528Z,22.70
2023-02-12T17:00:01.893Z,27.00
2023-02-12T17:05:08.951Z,27.20
2023-02-12T17:10:15.530Z,37.45
2023-02-12T17:15:26.140Z,33.13
2023-02-12T17:20:28.510Z,29.15
2023-02-12T17:25:31.365Z,27.77
2023-02-12T17:30:33.586Z,33.05
2023-02-12T17:35:38.346Z,65.35
2023-02-12T17:40:40.535Z,35.28
2023-02-12T17:45:43.594Z,34.00
2023-02-12T17:50:46.123Z,38.88
2023-02-12T17:55:48.267Z,33.42
2023-02-12T18:00:50.946Z,31.10
2023-02-12T18:05:53.199Z,28.90
2023-02-12T18:10:55.818Z,30.23
2023-02-12T18:15:58.067Z,26.50
2023-02-12T18:21:10.167Z,49.58
2023-02-12T18:26:16.113Z,66.32
2023-02-12T18:31:20.816Z,39.70
2023-02-12T18:36:23.320Z,41.00
2023-02-12T18:41:31.426Z,39.25
2023-02-12T18:46:33.735Z,51.53
2023-02-12T18:51:41.238Z,39.60
2023-02-12T18:56:45.507Z,43.78
2023-02-12T19:01:50.995Z,38.83
2023-02-12T19:06:54.750Z,36.28
2023-02-12T19:11:58.548Z,32.92
2023-02-12T19:17:01.076Z,36.78
2023-02-12T19:22:03.622Z,37.47
2023-02-12T19:33:42.398Z,47.28
2023-02-12T19:38:45.375Z,55.35
2023-02-12T19:43:48.296Z,35.95
2023-02-12T19:48:55.730Z,37.15
2023-02-12T19:54:03.261Z,40.63
2023-02-12T19:59:07.001Z,33.92
2023-02-12T20:04:14.075Z,31.63
2023-02-12T20:09:16.215Z,34.90
2023-02-12T20:14:21.020Z,41.10
2023-02-12T20:19:29.822Z,32.45
2023-02-12T20:24:34.468Z,38.08
2023-02-12T20:29:36.632Z,34.45
2023-02-12T20:34:50.587Z,33.13
2023-02-12T20:39:53.548Z,34.75
2023-02-12T20:44:55.755Z,38.50
2023-02-12T20:49:58.556Z,44.97
2023-02-12T20:55:00.750Z,43.10
2023-02-12T21:00:03.221Z,47.33
2023-02-12T21:05:06.249Z,52.10
2023-02-12T21:10:08.630Z,60.63
2023-02-12T21:15:10.705Z,51.25
2023-02-12T21:20:12.832Z,48.03
2023-02-12T21:25:15.073Z,55.13
2023-02-12T21:30:17.674Z,45.33
2023-02-12T21:35:20.125Z,44.65
2023-02-12T21:40:22.899Z,46.85
2023-02-12T21:45:25.425Z,41.10
2023-02-12T21:50:27.721Z,40.20
2023-02-12T21:55:30.018Z,41.45
2023-02-12T22:00:32.182Z,38.55
2023-02-12T22:05:34.856Z,35.03
2023-02-12T22:10:37.940Z,44.13
2023-02-12T22:15:40.294Z,40.92
2023-02-12T22:20:42.347Z,34.05
2023-02-12T22:25:44.476Z,44.30
2023-02-12T22:30:46.805Z,40.15
2023-02-12T22:35:49.179Z,38.13
2023-02-12T22:40:53.914Z,38.88
2023-02-12T22:45:56.125Z,38.17
2023-02-12T22:50:58.958Z,38.30
2023-02-12T22:56:06.135Z,38.00
2023-02-12T23:01:11.097Z,37.55
2023-02-12T23:06:16.569Z,37.70
2023-02-12T23:11:19.414Z,45.90
2023-02-12T23:16:22.522Z,34.03
2023-02-12T23:21:26.230Z,30.15
2023-02-12T23:26:30.180Z,32.03
2023-02-12T23:31:32.430Z,26.02
2023-02-12T23:36:34.723Z,26.08
2023-02-12T23:41:37.076Z,32.67
2023-02-12T23:46:39.273Z,28.83
2023-02-12T23:51:41.330Z,27.05
2023-02-12T23:56:43.525Z,28.08
